Langawirra Airport

YLAN · 澳大利亚

METAR的历史 YLAN · Langawirra Airport

下面你可以看到过去几天的METARs。 选择年份以浏览从2007年开始的旧METAR。

2024年7月13日

时间 代码 天气 温度 能见度 天花板 METAR/SPECI
21:00
V
11 °C 10 km+ 5.800 ft 240° 240° 5 kt METAR YPWR 131130Z AUTO 24005KT 9999 // OVC058 11/07 Q1021 RF00.0/000.0
20:30
V
11 °C 10 km+ 5.800 ft 290° 290° 6 kt METAR YPWR 131100Z AUTO 29006KT 9999 // BKN058 11/07 Q1021 RF00.0/000.0
20:00
V
11 °C 10 km+ - 270° 270° 6 kt METAR YPWR 131030Z AUTO 27006KT 9999 // SCT053 11/06 Q1021 RF00.0/000.0
19:30
V
12 °C 10 km+ - 270° 270° 6 kt METAR YPWR 131000Z AUTO 27006KT 9999 // NCD 12/06 Q1021 RF00.0/000.0
19:00
V
13 °C 10 km+ - 290° 290° 4 kt METAR YPWR 130930Z AUTO 29004KT 9999 // NCD 13/06 Q1020 RF00.0/000.0
18:30
V
13 °C 10 km+ - 250° 250° 6 kt METAR YPWR 130900Z AUTO 25006KT 9999 // SCT049 13/06 Q1020 RF00.0/000.0
18:00
V
15 °C 10 km+ 5.100 ft 240° 240° 8 kt METAR YPWR 130830Z AUTO 24008KT 9999 // OVC051 15/07 Q1020 RF00.0/000.0
17:30
V
15 °C 10 km+ 4.900 ft 240° 240° 10 kt METAR YPWR 130800Z AUTO 24010KT 9999 // OVC049 15/06 Q1020 RF00.0/000.0
17:00
V
16 °C 10 km+ 4.700 ft 220° 220° 9 kt METAR YPWR 130730Z AUTO 22009KT 9999 // OVC047 OVC051 16/05 Q1020
16:30
V
16 °C 10 km+ 4.900 ft 240° 240° 8 kt METAR YPWR 130700Z AUTO 24008KT 9999 // OVC049 16/05 Q1020 RF00.0/000.0
16:00
V
16 °C 10 km+ 4.700 ft 210° 210° 8 kt METAR YPWR 130630Z AUTO 21008KT 9999 // OVC047 16/05 Q1020 RF00.0/000.0
15:30
V
16 °C 10 km+ 4.700 ft 230° 230° 8 kt METAR YPWR 130600Z AUTO 23008KT 170V250 9999 // OVC047 16/06 Q1020
15:00
V
16 °C 10 km+ - 240° 240° 9 kt METAR YPWR 130530Z AUTO 24009KT 9999 // NCD 16/05 Q1020 RF00.0/000.0
14:30
V
16 °C 10 km+ - 220° 220° 9 kt METAR YPWR 130500Z AUTO 22009KT 9999 // FEW041 16/05 Q1020 RF00.0/000.0
14:00
V
16 °C 10 km+ - 200° 200° 10 kt METAR YPWR 130430Z AUTO 20010KT 9999 // SCT038 16/06 Q1020 RF00.0/000.0
13:30
V
16 °C 10 km+ - 240° 240° 9 kt METAR YPWR 130400Z AUTO 24009KT 9999 // SCT036 SCT043 16/06 Q1020
13:00
V
15 °C 10 km+ 4.000 ft 250° 250° 9 kt METAR YPWR 130330Z AUTO 25009KT 9999 // SCT031 BKN040 BKN046 15/07 Q1021
12:30
V
15 °C 10 km+ - 260° 260° 6 kt METAR YPWR 130300Z AUTO 26006KT 9999 // FEW027 SCT039 15/08 Q1021
12:00
V
14 °C 10 km+ - 260° 260° 6 kt METAR YPWR 130230Z AUTO 26006KT 9999 // NCD 14/10 Q1022 RF00.0/000.0
11:30
V
13 °C 10 km+ - 230° 230° 4 kt METAR YPWR 130200Z AUTO 23004KT 190V250 9999 // FEW006 13/11 Q1023
11:23
V
13 °C 10 km+ - 220° 220° 5 kt SPECI YPWR 130153Z AUTO 22005KT 9999 // FEW006 13/11 Q1023 RF00.0/000.0
11:00
I
12 °C 10 km+ 500 ft 230° 230° 5 kt METAR YPWR 130130Z AUTO 23005KT 9999 // BKN005 12/11 Q1023 RF00.0/000.0
10:30
L
11 °C 10 km+ 300 ft 220° 220° 6 kt METAR YPWR 130100Z AUTO 22006KT 9999 // BKN003 11/11 Q1023 RF00.0/000.0
10:17
L
11 °C 10 km+ 300 ft 220° 220° 7 kt SPECI YPWR 130047Z AUTO 22007KT 9999 // BKN003 11/11 Q1023 RF00.0/000.0
10:00
V
11 °C 10 km+ - 230° 230° 7 kt METAR YPWR 130030Z AUTO 23007KT 9999 // NCD 11/11 Q1023 RF00.0/000.0
09:30
V
10 °C 10 km+ - 240° 240° 6 kt METAR YPWR 130000Z AUTO 24006KT 9999 // NCD 10/10 Q1023 RF00.0/000.0
09:06
V
9 °C 10 km+ - 250° 250° 6 kt SPECI YPWR 122336Z AUTO 25006KT 9999 // FEW006 09/09 Q1022 RF00.0/000.0
09:00
V
9 °C 10 km+ - 240° 240° 6 kt SPECI YPWR 122330Z AUTO 24006KT 9999 // SCT006 09/09 Q1022 RF00.0/000.2
08:40
L
8 °C 1 km 400 ft 240° 240° 6 kt SPECI YPWR 122310Z AUTO 24006KT 1000 BR OVC004 08/08 Q1022 RF00.0/000.2
08:00
L
7 °C 200 m 100 ft 250° 250° 6 kt METAR YPWR 122230Z AUTO 25006KT 0200 FG OVC001 07/07 Q1022 RF00.0/000.2
07:30
L
7 °C 700 m 100 ft 230° 230° 7 kt SPECI YPWR 122200Z AUTO 23007KT 0700 FG BKN001 BKN006 07/07 Q1022
07:18
L
6 °C 700 m 200 ft 240° 240° 7 kt SPECI YPWR 122148Z AUTO 24007KT 0700 FG BKN002 06/06 Q1022 RF00.0/000.0
07:00
L
7 °C 1,3 km - 230° 230° 6 kt SPECI YPWR 122130Z AUTO 23006KT 1300 BR NCD 07/06 Q1021 RF00.0/000.0
06:43
M
6 °C 6 km - 230° 230° 5 kt SPECI YPWR 122113Z AUTO 23005KT 6000 // NCD 06/06 Q1021 RF00.0/000.0
06:00
V
8 °C 10 km+ - 200° 200° 6 kt METAR YPWR 122030Z AUTO 20006KT 9999 // NCD 08/08 Q1021 RF00.0/000.0
05:30
V
8 °C 10 km+ - 190° 190° 6 kt METAR YPWR 122000Z AUTO 19006KT 9999 // NCD 08/08 Q1021 RF00.0/000.0
05:00
V
8 °C 10 km+ - 220° 220° 5 kt METAR YPWR 121930Z AUTO 22005KT 9999 // NCD 08/08 Q1020 RF00.0/000.0
04:30
V
8 °C 10 km+ - 220° 220° 6 kt METAR YPWR 121900Z AUTO 22006KT 9999 // NCD 08/08 Q1020 RF00.0/000.0
04:00
V
9 °C 10 km+ - 210° 210° 6 kt METAR YPWR 121830Z AUTO 21006KT 9999 // NCD 09/09 Q1020 RF00.0/000.0
03:30
V
9 °C 10 km+ - 230° 230° 5 kt METAR YPWR 121800Z AUTO 23005KT 9999 // NCD 09/08 Q1020 RF00.0/000.0
03:00
V
8 °C 10 km+ - 230° 230° 6 kt METAR YPWR 121730Z AUTO 23006KT 9999 // NCD 08/08 Q1020 RF00.0/000.0
02:30
V
9 °C 10 km+ - 230° 230° 6 kt METAR YPWR 121700Z AUTO 23006KT 9999 // NCD 09/08 Q1020 RF00.0/000.0
02:00
V
10 °C 10 km+ - 220° 220° 8 kt METAR YPWR 121630Z AUTO 22008KT 9999 // NCD 10/09 Q1020 RF00.0/000.0
01:30
V
10 °C 10 km+ - 220° 220° 6 kt METAR YPWR 121600Z AUTO 22006KT 9999 // NCD 10/08 Q1020 RF00.0/000.0
01:00
V
10 °C 10 km+ - 220° 220° 6 kt METAR YPWR 121530Z AUTO 22006KT 9999 // NCD 10/08 Q1021 RF00.0/000.0
00:30
V
10 °C 10 km+ - 250° 250° 5 kt METAR YPWR 121500Z AUTO 25005KT 9999 // SCT058 10/08 Q1021 RF00.0/000.0
00:00
V
11 °C 10 km+ 6.000 ft 250° 250° 5 kt METAR YPWR 121430Z AUTO 25005KT 9999 // OVC060 11/08 Q1021 RF00.0/000.0

2024年7月12日

时间 代码 天气 温度 能见度 天花板 METAR/SPECI
23:30
V
12 °C 10 km+ 4.000 ft 270° 270° 6 kt METAR YPWR 121400Z AUTO 27006KT 9999 // SCT034 BKN040 OVC060 12/09 Q1021
23:00
V
12 °C 10 km+ 4.300 ft 230° 230° 8 kt METAR YPWR 121330Z AUTO 23008KT 9999 // BKN043 OVC050 OVC060 12/09 Q1021
22:30
V
11 °C 10 km+ 4.300 ft 260° 260° 5 kt METAR YPWR 121300Z AUTO 26005KT 9999 // BKN043 OVC060 11/08 Q1021
22:00
V
12 °C 10 km+ 6.000 ft 230° 230° 5 kt METAR YPWR 121230Z AUTO 23005KT 9999 // OVC060 12/08 Q1021 RF00.0/000.0
21:30
V
12 °C 10 km+ 5.600 ft 250° 250° 4 kt METAR YPWR 121200Z AUTO 25004KT 9999 // BKN056 12/07 Q1021 RF00.0/000.0
21:00
V
12 °C 10 km+ 5.600 ft 260° 260° 5 kt METAR YPWR 121130Z AUTO 26005KT 9999 // FEW049 OVC056 12/07 Q1021
20:30
V
11 °C 10 km+ 5.800 ft 280° 280° 5 kt METAR YPWR 121100Z AUTO 28005KT 9999 // BKN058 11/07 Q1021 RF00.0/000.0
20:00
V
11 °C 10 km+ 5.600 ft 230° 230° 4 kt METAR YPWR 121030Z AUTO 23004KT 9999 // BKN056 11/06 Q1020 RF00.0/000.0
19:30
V
12 °C 10 km+ - 220° 220° 4 kt METAR YPWR 121000Z AUTO 22004KT 9999 // FEW056 12/06 Q1020 RF00.0/000.0
19:00
V
12 °C 10 km+ - 190° 190° 6 kt METAR YPWR 120930Z AUTO 19006KT 9999 // NCD 12/06 Q1020 RF00.0/000.0
18:30
V
12 °C 10 km+ - 190° 190° 6 kt METAR YPWR 120900Z AUTO 19006KT 9999 // FEW051 12/06 Q1020 RF00.0/000.0
18:00
V
13 °C 10 km+ - 210° 210° 6 kt METAR YPWR 120830Z AUTO 21006KT 9999 // NCD 13/06 Q1019 RF00.0/000.0
17:30
V
15 °C 10 km+ - 210° 210° 8 kt METAR YPWR 120800Z AUTO 21008KT 9999 // NCD 15/06 Q1019 RF00.0/000.0
17:00
V
15 °C 10 km+ - 210° 210° 11 kt METAR YPWR 120730Z AUTO 21011KT 9999 // NCD 15/06 Q1019 RF00.0/000.0
16:30
V
16 °C 10 km+ - 210° 210° 11 kt METAR YPWR 120700Z AUTO 21011KT 9999 // SCT045 16/05 Q1019 RF00.0/000.0
16:00
V
16 °C 10 km+ - 220° 220° 12 kt METAR YPWR 120630Z AUTO 22012KT 9999 // SCT043 16/06 Q1019 RF00.0/000.0
15:30
V
16 °C 10 km+ - 190° 190° 16 kt METAR YPWR 120600Z AUTO 19016KT 9999 // FEW045 16/05 Q1019 RF00.0/000.0
15:00
V
16 °C 10 km+ 4.300 ft 180° 180° 13 kt METAR YPWR 120530Z AUTO 18013KT 9999 // BKN043 16/05 Q1019 RF00.0/000.0
14:30
V
16 °C 10 km+ - 210° 210° 12 kt METAR YPWR 120500Z AUTO 21012KT 9999 // SCT043 16/05 Q1019 RF00.0/000.0
14:00
V
16 °C 10 km+ 4.100 ft 210° 210° 11 kt METAR YPWR 120430Z AUTO 21011KT 9999 // BKN041 16/05 Q1019 RF00.0/000.0
13:30
V
16 °C 10 km+ 3.900 ft 220° 220° 13 kt METAR YPWR 120400Z AUTO 22013KT 9999 // BKN039 16/06 Q1019 RF00.0/000.0
13:00
V
15 °C 10 km+ 3.700 ft 210° 210° 12 kt METAR YPWR 120330Z AUTO 21012KT 9999 // BKN037 15/06 Q1019 RF00.0/000.0
12:30
V
15 °C 10 km+ - 220° 220° 12 kt METAR YPWR 120300Z AUTO 22012KT 9999 // SCT033 15/07 Q1020 RF00.0/000.0
12:00
V
15 °C 10 km+ - 210° 210° 12 kt METAR YPWR 120230Z AUTO 21012KT 9999 // SCT027 15/07 Q1020 RF00.0/000.0
11:30
M
15 °C 10 km+ 2.300 ft 200° 200° 11 kt METAR YPWR 120200Z AUTO 20011KT 9999 // BKN023 BKN029 15/08 Q1021
11:00
V
14 °C 10 km+ - 210° 210° 12 kt METAR YPWR 120130Z AUTO 21012KT 9999 // NCD 14/09 Q1021 RF00.0/000.0
10:30
V
13 °C 10 km+ - 210° 210° 11 kt METAR YPWR 120100Z AUTO 21011KT 9999 // NCD 13/09 Q1021 RF00.0/000.0
10:00
V
13 °C 10 km+ - 200° 200° 9 kt METAR YPWR 120030Z AUTO 20009KT 9999 // NCD 13/09 Q1021 RF00.0/000.0
09:30
V
11 °C 10 km+ - 210° 210° 9 kt METAR YPWR 120000Z AUTO 21009KT 9999 // NCD 11/09 Q1020 RF00.0/000.0
09:00
V
10 °C 10 km+ - 210° 210° 6 kt METAR YPWR 112330Z AUTO 21006KT 9999 // NCD 10/10 Q1020 RF00.0/000.2
08:30
V
9 °C 10 km+ - 220° 220° 6 kt METAR YPWR 112300Z AUTO 22006KT 9999 // NCD 09/08 Q1019 RF00.0/000.2
08:00
V
7 °C 10 km+ - 220° 220° 7 kt METAR YPWR 112230Z AUTO 22007KT 9999 // NCD 07/07 Q1019 RF00.0/000.2
07:30
V
7 °C 10 km+ - 220° 220° 7 kt METAR YPWR 112200Z AUTO 22007KT 9999 // NCD 07/07 Q1019 RF00.0/000.2
07:00
V
7 °C 10 km+ - 230° 230° 7 kt METAR YPWR 112130Z AUTO 23007KT 9999 // NCD 07/06 Q1019 RF00.0/000.2
06:30
V
7 °C 10 km+ - 230° 230° 7 kt METAR YPWR 112100Z AUTO 23007KT 9999 // NCD 07/07 Q1019 RF00.0/000.0
06:00
V
7 °C 10 km+ - 230° 230° 7 kt METAR YPWR 112030Z AUTO 23007KT 9999 // NCD 07/07 Q1018 RF00.0/000.0
05:30
V
8 °C 10 km+ - 220° 220° 8 kt METAR YPWR 112000Z AUTO 22008KT 9999 // NCD 08/07 Q1018 RF00.0/000.0
05:00
V
8 °C 10 km+ - 220° 220° 8 kt METAR YPWR 111930Z AUTO 22008KT 9999 // NCD 08/07 Q1018 RF00.0/000.0
04:30
V
8 °C 10 km+ - 210° 210° 8 kt METAR YPWR 111900Z AUTO 21008KT 9999 // NCD 08/08 Q1018 RF00.0/000.0
04:00
V
8 °C 10 km+ - 210° 210° 7 kt METAR YPWR 111830Z AUTO 21007KT 9999 // NCD 08/08 Q1018 RF00.0/000.0
03:30
V
8 °C 10 km+ - 200° 200° 7 kt METAR YPWR 111800Z AUTO 20007KT 9999 // NCD 08/08 Q1018 RF00.0/000.0
03:00
V
9 °C 10 km+ - 210° 210° 6 kt METAR YPWR 111730Z AUTO 21006KT 9999 // NCD 09/08 Q1018 RF00.0/000.0
02:30
M
9 °C 10 km+ 2.900 ft 200° 200° 8 kt METAR YPWR 111700Z AUTO 20008KT 9999 // BKN029 OVC033 09/09 Q1018
02:00
V
10 °C 10 km+ 3.300 ft 200° 200° 8 kt METAR YPWR 111630Z AUTO 20008KT 9999 // SCT029 BKN033 10/09 Q1017
01:30
V
10 °C 10 km+ - 200° 200° 7 kt METAR YPWR 111600Z AUTO 20007KT 9999 // NCD 10/09 Q1017 RF00.0/000.0
01:00
V
10 °C 10 km+ - 190° 190° 7 kt METAR YPWR 111530Z AUTO 19007KT 9999 // NCD 10/10 Q1017 RF00.0/000.0
00:30
V
11 °C 10 km+ - 190° 190° 8 kt METAR YPWR 111500Z AUTO 19008KT 9999 // FEW025 11/10 Q1017 RF00.0/000.0
00:00
V
11 °C 10 km+ - 200° 200° 7 kt METAR YPWR 111430Z AUTO 20007KT 9999 // SCT023 11/10 Q1017 RF00.0/000.0

2024年7月11日

时间 代码 天气 温度 能见度 天花板 METAR/SPECI
23:30
V
11 °C 10 km+ - 190° 190° 7 kt METAR YPWR 111400Z AUTO 19007KT 9999 // FEW023 11/11 Q1017 RF00.0/000.0
23:00
V
11 °C 10 km+ - 160° 160° 7 kt METAR YPWR 111330Z AUTO 16007KT 9999 // NCD 11/11 Q1017 RF00.0/000.0
22:30
V
11 °C 10 km+ - 160° 160° 5 kt METAR YPWR 111300Z AUTO 16005KT 9999 // NCD 11/10 Q1017 RF00.0/000.0
22:00
V
12 °C 10 km+ - 180° 180° 8 kt METAR YPWR 111230Z AUTO 18008KT 9999 // NCD 12/11 Q1017 RF00.0/000.0
21:30
V
13 °C 10 km+ 8.300 ft 200° 200° 11 kt METAR YPWR 111200Z AUTO 20011KT 9999 // SCT033 SCT045 BKN083 13/11 Q1017
21:00
V
13 °C 10 km+ 6.300 ft 220° 220° 8 kt METAR YPWR 111130Z AUTO 22008KT 9999 // FEW035 SCT047 OVC063 13/11 Q1017
20:30
V
12 °C 10 km+ 6.100 ft 220° 220° 7 kt METAR YPWR 111100Z AUTO 22007KT 9999 // OVC061 12/11 Q1017 RF00.0/000.0
20:00
V
13 °C 10 km+ 5.700 ft 220° 220° 7 kt METAR YPWR 111030Z AUTO 22007KT 9999 // BKN057 BKN084 13/11 Q1016
19:00
V
13 °C 10 km+ 7.700 ft 220° 220° 8 kt METAR YPWR 110930Z AUTO 22008KT 9999 // SCT059 SCT068 BKN077 13/11 Q1016
18:30
V
14 °C 10 km+ 5.500 ft 210° 210° 10 kt METAR YPWR 110900Z AUTO 21010KT 9999 // FEW035 SCT043 BKN055 14/11 Q1015
18:00
V
15 °C 10 km+ 3.700 ft 250° 250° 10 kt METAR YPWR 110830Z AUTO 25010KT 9999 // BKN037 BKN043 15/09 Q1015
17:30
V
16 °C 10 km+ - 220° 220° 9 kt METAR YPWR 110800Z AUTO 22009KT 9999 // SCT034 SCT041 16/09 Q1014
17:00
V
17 °C 10 km+ - 230° 230° 13 kt METAR YPWR 110730Z AUTO 23013KT 9999 // NCD 17/09 Q1014 RF00.0/000.0
16:30
V
17 °C 10 km+ 4.800 ft 250° 250° 13 kt METAR YPWR 110700Z AUTO 25013KT 9999 // SCT035 BKN048 17/08 Q1014
16:00
V
18 °C 10 km+ 3.500 ft 240° 240° 11 kt METAR YPWR 110630Z AUTO 24011KT 9999 // BKN035 18/09 Q1014 RF00.0/000.0
15:30
V
17 °C 10 km+ 3.700 ft 230° 230° 13 kt METAR YPWR 110600Z AUTO 23013KT 9999 // SCT030 BKN037 17/09 Q1014
报告变更